Sturtevant, Wisconsin
Current Conditions -  °F | °C
As of 5:53 PM on Saturday 20 Dec 2014 (Local Time) from KRAC Reporting Station
Overcast Overcast  
Wind Chill: 31°   Ceiling: 3900
Heat Index: 31°   Visibility: 8mi
Dew Point: 24°   Wind: 0mph
Humidity: 76%   Direction: NA
Pressure: 30.26"   Gusts: NA
Location:  42.7°N, 87.89°W
Report Text: KRAC 202353Z AUTO 00000KT 8SM OVC039 M01/M04 A3026 RMK AO2 SLP257 T10061044 11006 21006 51006
Loading
Personal Weather Stations






























Interactive Weather Map New forecast layout! Learn more

10-Day Weather Forecast

Advertisements
Track Severe Weather on mobile